Time;durP1;ratioP1;P1;durP2;ratioP2;P2;SDS_P1;SDS_P2;PMS_P1;PMS_P2;Temp;Humidity;BMP_temperature;BMP_pressure;BME280_temperature;BME280_humidity;BME280_pressure;Samples;Min_cycle;Max_cycle;Signal;HPM_P1;HPM_P2
2021/11/14 00:00:14;;;;;;;24.52;16.70;;;7.50;99.90;;;;;;5053639;28;20029;-60
2021/11/14 00:02:40;;;;;;;27.52;17.85;;;7.60;99.90;;;;;;5053566;28;20079;-60
2021/11/14 00:05:07;;;;;;;24.85;17.50;;;7.50;99.90;;;;;;5052528;28;20025;-60
2021/11/14 00:07:33;;;;;;;26.60;19.23;;;7.50;99.90;;;;;;5053116;28;20021;-60
2021/11/14 00:09:59;;;;;;;27.17;18.52;;;7.70;99.90;;;;;;5053094;28;20078;-61
2021/11/14 00:12:25;;;;;;;24.00;17.83;;;7.50;99.90;;;;;;5053181;28;20021;-61
2021/11/14 00:14:50;;;;;;;23.33;16.77;;;7.60;99.90;;;;;;5052518;28;20028;-61
2021/11/14 00:17:16;;;;;;;25.30;17.42;;;7.70;99.90;;;;;;5052969;28;20021;-60
2021/11/14 00:19:42;;;;;;;25.83;16.73;;;7.60;99.90;;;;;;5053000;28;20027;-60
2021/11/14 00:22:07;;;;;;;23.90;16.98;;;7.60;99.90;;;;;;5053016;28;20451;-61
2021/11/14 00:24:33;;;;;;;23.27;16.00;;;7.60;99.90;;;;;;5052478;28;20502;-61
2021/11/14 00:26:59;;;;;;;25.55;16.35;;;7.50;99.90;;;;;;5052716;28;20040;-62
2021/11/14 00:29:24;;;;;;;23.48;16.60;;;7.50;99.90;;;;;;5052780;28;20040;-62
2021/11/14 00:31:50;;;;;;;25.35;17.45;;;7.50;99.90;;;;;;5035829;28;20032;-62
2021/11/14 00:34:16;;;;;;;36.80;19.83;;;7.50;99.90;;;;;;5052327;28;20029;-62
2021/11/14 00:36:43;;;;;;;32.50;21.30;;;7.50;99.90;;;;;;5052177;28;20021;-61
2021/11/14 00:39:16;;;;;;;36.45;21.63;;;7.50;99.90;;;;;;5052692;28;20036;-62
2021/11/14 00:41:43;;;;;;;40.40;22.58;;;7.50;99.90;;;;;;5052881;28;20029;-62
2021/11/14 00:44:10;;;;;;;36.75;21.52;;;7.40;99.90;;;;;;5052739;28;20056;-61
2021/11/14 00:46:35;;;;;;;33.45;21.65;;;7.50;99.90;;;;;;5052285;28;20032;-60
2021/11/14 00:49:02;;;;;;;30.55;20.75;;;7.50;99.90;;;;;;5052159;28;20655;-61
2021/11/14 00:51:30;;;;;;;29.77;20.25;;;7.50;99.90;;;;;;5052390;28;20108;-61
2021/11/14 00:53:59;;;;;;;27.63;19.70;;;7.50;99.90;;;;;;5052269;28;20108;-61
2021/11/14 00:56:27;;;;;;;25.95;20.02;;;7.50;99.90;;;;;;5051518;28;20033;-62
2021/11/14 00:58:53;;;;;;;29.13;19.52;;;7.50;99.90;;;;;;5052975;28;20029;-59
2021/11/14 01:01:19;;;;;;;26.85;19.40;;;7.50;99.90;;;;;;5052862;28;20028;-62
2021/11/14 01:03:46;;;;;;;28.73;19.45;;;7.60;99.90;;;;;;5052282;28;20506;-59
2021/11/14 01:06:12;;;;;;;27.08;19.75;;;7.60;99.90;;;;;;5051317;28;20136;-62
2021/11/14 01:08:38;;;;;;;28.00;18.17;;;7.60;99.90;;;;;;5051973;28;20033;-61
2021/11/14 01:11:05;;;;;;;25.13;18.75;;;7.70;99.90;;;;;;5052428;28;20094;-61
2021/11/14 01:13:33;;;;;;;27.50;19.35;;;7.70;99.90;;;;;;5052656;28;20400;-60
2021/11/14 01:15:59;;;;;;;24.10;17.77;;;7.70;99.90;;;;;;5051774;28;20290;-61
2021/11/14 01:18:25;;;;;;;23.83;17.23;;;7.70;99.90;;;;;;5052186;28;20024;-61
2021/11/14 01:20:57;;;;;;;22.38;16.92;;;7.60;99.90;;;;;;5051743;28;20483;-61
2021/11/14 01:23:24;;;;;;;21.35;17.60;;;7.60;99.90;;;;;;5049822;28;20036;-62
2021/11/14 01:25:50;;;;;;;22.30;17.13;;;7.80;99.90;;;;;;5051371;28;20398;-62
2021/11/14 01:28:17;;;;;;;20.65;16.92;;;8.20;99.90;;;;;;5051868;28;20051;-61
2021/11/14 01:30:49;;;;;;;22.15;17.38;;;7.70;99.90;;;;;;5052055;28;20024;-61
2021/11/14 01:33:16;;;;;;;;;;;7.70;99.90;;;;;;5052627;28;20017;-62
2021/11/14 01:35:42;;;;;;;20.73;15.68;;;8.10;99.90;;;;;;5033012;28;19912;-61
2021/11/14 01:38:09;;;;;;;19.42;15.65;;;7.60;99.90;;;;;;5051803;28;20041;-62
2021/11/14 01:40:43;;;;;;;22.33;15.75;;;7.60;99.90;;;;;;5051676;28;20025;-61
2021/11/14 01:43:11;;;;;;;20.10;16.00;;;7.70;99.90;;;;;;5051980;28;20235;-61
2021/11/14 01:45:37;;;;;;;21.52;16.73;;;7.70;99.90;;;;;;5051294;28;20032;-61
2021/11/14 01:48:04;;;;;;;21.60;15.93;;;7.70;99.90;;;;;;5051651;28;20051;-61
2021/11/14 01:50:30;;;;;;;23.83;16.60;;;7.70;99.90;;;;;;5051158;28;20035;-61
2021/11/14 01:52:56;;;;;;;21.95;16.30;;;7.70;99.90;;;;;;5051659;28;20025;-61
2021/11/14 01:55:26;;;;;;;19.35;15.48;;;7.70;99.90;;;;;;5051940;28;20096;-62
2021/11/14 01:57:53;;;;;;;19.63;15.90;;;7.80;99.90;;;;;;5051373;28;20117;-61
2021/11/14 02:00:25;;;;;;;19.95;15.40;;;7.60;99.90;;;;;;5051612;28;20108;-61
2021/11/14 02:02:51;;;;;;;23.90;16.20;;;7.90;99.90;;;;;;5051438;28;20113;-62
2021/11/14 02:05:22;;;;;;;24.20;15.82;;;7.70;99.90;;;;;;5049036;28;20029;-61
2021/11/14 02:07:48;;;;;;;21.45;15.75;;;7.70;99.90;;;;;;5051041;28;20071;-61
2021/11/14 02:10:14;;;;;;;20.30;15.95;;;7.70;99.90;;;;;;5051262;28;20029;-61
2021/11/14 02:12:40;;;;;;;19.40;14.95;;;8.00;99.90;;;;;;5053959;28;20033;-61
2021/11/14 02:15:06;;;;;;;22.60;15.60;;;7.80;99.90;;;;;;5055215;28;20108;-63
2021/11/14 02:17:32;;;;;;;19.55;15.27;;;7.80;99.90;;;;;;5055339;28;20055;-62
2021/11/14 02:19:58;;;;;;;17.35;14.35;;;7.80;99.90;;;;;;5054742;28;20064;-62
2021/11/14 02:22:23;;;;;;;17.70;14.48;;;7.90;99.90;;;;;;5037314;28;20225;-61
2021/11/14 02:24:49;;;;;;;20.73;15.50;;;7.80;99.90;;;;;;5054706;28;20029;-61
2021/11/14 02:27:15;;;;;;;20.60;15.02;;;7.80;99.90;;;;;;5055460;28;20036;-62
2021/11/14 02:29:41;;;;;;;21.33;15.88;;;7.60;99.90;;;;;;5055115;28;20024;-62
2021/11/14 02:32:08;;;;;;;19.80;15.75;;;7.70;99.90;;;;;;5056307;28;20029;-60
2021/11/14 02:34:33;;;;;;;19.33;15.40;;;7.70;99.90;;;;;;5054482;28;20021;-60
2021/11/14 02:36:59;;;;;;;18.55;15.40;;;7.70;99.90;;;;;;5054973;28;20494;-62
2021/11/14 02:39:25;;;;;;;18.60;15.18;;;7.70;99.90;;;;;;5054981;28;20060;-61
2021/11/14 02:41:51;;;;;;;21.58;16.23;;;7.70;99.90;;;;;;5054906;28;20029;-62
2021/11/14 02:44:17;;;;;;;17.33;14.88;;;7.70;99.90;;;;;;5054355;28;20029;-64
2021/11/14 02:46:42;;;;;;;18.80;15.25;;;7.60;99.90;;;;;;5054739;28;20029;-62
2021/11/14 02:49:08;;;;;;;18.98;15.18;;;7.70;99.90;;;;;;5054492;28;20188;-62
2021/11/14 02:51:35;;;;;;;24.08;15.82;;;7.60;99.90;;;;;;5054385;28;20048;-60
2021/11/14 02:54:02;;;;;;;20.50;15.80;;;7.60;99.90;;;;;;5054759;28;20040;-62
2021/11/14 02:56:29;;;;;;;19.88;15.32;;;7.50;99.90;;;;;;5053691;28;20100;-62
2021/11/14 02:58:55;;;;;;;19.20;15.18;;;7.60;99.90;;;;;;5054600;28;20016;-62
2021/11/14 03:01:30;;;;;;;18.75;14.35;;;7.50;99.90;;;;;;5054568;28;20029;-61
2021/11/14 03:03:58;;;;;;;17.63;14.52;;;7.50;99.90;;;;;;5053454;28;20464;-61
2021/11/14 03:06:27;;;;;;;22.45;15.35;;;7.60;99.90;;;;;;5053713;28;20064;-62
2021/11/14 03:08:52;;;;;;;19.58;15.57;;;7.50;99.90;;;;;;5054317;28;20051;-62
2021/11/14 03:11:18;;;;;;;22.25;16.77;;;7.40;99.90;;;;;;5054399;28;20028;-62
2021/11/14 03:13:45;;;;;;;22.05;16.92;;;7.30;99.90;;;;;;5054275;28;20043;-62
2021/11/14 03:16:13;;;;;;;24.80;16.10;;;7.10;99.90;;;;;;5053446;28;20063;-62
2021/11/14 03:18:39;;;;;;;24.58;17.50;;;7.00;99.90;;;;;;5054363;28;20086;-62
2021/11/14 03:21:05;;;;;;;23.90;16.80;;;7.40;99.90;;;;;;5054013;28;20100;-61
2021/11/14 03:23:31;;;;;;;27.60;18.50;;;7.00;99.90;;;;;;5053044;28;20048;-62
2021/11/14 03:25:58;;;;;;;25.05;17.90;;;7.30;99.90;;;;;;5053568;28;20028;-62
2021/11/14 03:28:24;;;;;;;26.65;18.27;;;6.90;99.90;;;;;;5053638;28;20025;-62
2021/11/14 03:30:53;;;;;;;27.02;18.30;;;6.90;99.90;;;;;;5054005;28;20067;-62
2021/11/14 03:33:19;;;;;;;25.58;18.67;;;6.90;99.90;;;;;;5053992;28;20079;-61
2021/11/14 03:35:55;;;;;;;28.70;19.50;;;7.00;99.90;;;;;;5035227;28;20025;-62
2021/11/14 03:38:32;;;;;;;34.17;23.23;;;7.10;99.90;;;;;;5053628;28;20096;-62
2021/11/14 03:40:58;;;;;;;31.48;20.38;;;7.20;99.90;;;;;;5053879;28;20040;-62
2021/11/14 03:43:24;;;;;;;45.92;22.90;;;7.20;99.90;;;;;;5053770;28;20373;-62
2021/11/14 03:45:50;;;;;;;45.65;22.50;;;7.30;99.90;;;;;;5053169;28;20563;-62
2021/11/14 03:48:16;;;;;;;34.05;21.25;;;7.20;99.90;;;;;;5053449;28;20024;-62
2021/11/14 03:50:42;;;;;;;36.03;22.02;;;7.20;99.90;;;;;;5053925;28;20044;-62
2021/11/14 03:53:10;;;;;;;34.83;21.02;;;7.30;99.90;;;;;;5053656;28;20017;-62
2021/11/14 03:55:37;;;;;;;32.85;20.40;;;7.20;99.90;;;;;;5053514;28;20052;-62
2021/11/14 03:58:04;;;;;;;31.60;19.90;;;7.20;99.90;;;;;;5053537;28;20033;-61
2021/11/14 04:00:33;;;;;;;31.10;20.27;;;7.10;99.90;;;;;;5053429;28;20024;-61
2021/11/14 04:03:00;;;;;;;32.08;19.50;;;7.20;99.90;;;;;;5053550;28;20033;-62
2021/11/14 04:05:29;;;;;;;31.65;20.50;;;7.80;99.90;;;;;;5052429;28;20025;-61
2021/11/14 04:07:56;;;;;;;30.98;20.25;;;7.30;99.90;;;;;;5053080;28;20376;-62
2021/11/14 04:10:22;;;;;;;33.22;19.63;;;7.20;99.90;;;;;;5053248;28;20032;-61
2021/11/14 04:12:48;;;;;;;32.83;20.35;;;7.10;99.90;;;;;;5053189;28;20475;-61
2021/11/14 04:15:15;;;;;;;37.33;22.50;;;7.70;99.90;;;;;;5051453;28;20025;-60
2021/11/14 04:17:41;;;;;;;34.67;21.15;;;7.30;99.90;;;;;;5052955;28;20029;-61
2021/11/14 04:20:10;;;;;;;32.30;22.27;;;7.20;99.90;;;;;;5052543;28;20048;-62
2021/11/14 04:22:37;;;;;;;33.35;20.90;;;7.30;99.90;;;;;;5052719;28;20132;-62
2021/11/14 04:25:04;;;;;;;34.47;22.05;;;7.40;99.90;;;;;;5052449;28;20024;-60
2021/11/14 04:27:29;;;;;;;33.78;21.77;;;7.30;99.90;;;;;;5034982;28;20056;-61
2021/11/14 04:29:55;;;;;;;31.05;20.67;;;7.30;99.90;;;;;;5052934;28;20491;-61
2021/11/14 04:32:21;;;;;;;32.05;19.83;;;7.20;99.90;;;;;;5052783;28;20033;-61
2021/11/14 04:34:46;;;;;;;30.52;18.92;;;7.20;99.90;;;;;;5051418;28;20025;-62
2021/11/14 04:37:12;;;;;;;29.38;17.88;;;7.40;99.90;;;;;;5052712;28;20021;-61
2021/11/14 04:39:38;;;;;;;27.20;17.90;;;7.30;99.90;;;;;;5051751;28;20517;-62
2021/11/14 04:42:07;;;;;;;24.05;16.20;;;7.50;99.90;;;;;;5053466;28;20372;-60
2021/11/14 04:44:34;;;;;;;27.60;17.38;;;7.00;99.90;;;;;;5052698;28;20521;-62
2021/11/14 04:47:00;;;;;;;24.30;15.57;;;7.10;99.90;;;;;;5052783;28;20056;-62
2021/11/14 04:49:26;;;;;;;22.30;14.18;;;7.20;99.90;;;;;;5052250;28;20075;-62
2021/11/14 04:51:52;;;;;;;21.63;14.38;;;7.10;99.90;;;;;;5052266;28;20021;-61
2021/11/14 04:54:18;;;;;;;25.38;15.15;;;7.20;99.90;;;;;;5052008;28;20087;-61
2021/11/14 04:56:45;;;;;;;21.40;14.05;;;7.10;99.90;;;;;;5052379;28;20124;-64
2021/11/14 04:59:11;;;;;;;27.08;13.77;;;7.10;99.90;;;;;;5052404;28;20495;-61
2021/11/14 05:01:37;;;;;;;21.33;14.43;;;7.10;99.90;;;;;;5052474;28;20036;-61
2021/11/14 05:04:04;;;;;;;19.00;13.27;;;7.00;99.90;;;;;;5052333;28;20387;-62
2021/11/14 05:06:30;;;;;;;20.60;13.65;;;7.10;99.90;;;;;;5051312;28;20479;-61
2021/11/14 05:08:56;;;;;;;19.60;13.35;;;7.20;99.90;;;;;;5052089;28;20086;-57
2021/11/14 05:11:22;;;;;;;22.08;14.15;;;7.20;99.90;;;;;;5052228;28;20017;-58
2021/11/14 05:13:47;;;;;;;20.27;13.77;;;7.10;99.90;;;;;;5052876;28;20029;-57
2021/11/14 05:16:13;;;;;;;18.90;13.10;;;7.20;99.90;;;;;;5051450;28;20036;-59
2021/11/14 05:18:39;;;;;;;17.83;12.38;;;7.60;99.90;;;;;;5051989;28;20028;-60
2021/11/14 05:21:06;;;;;;;20.58;13.70;;;7.10;99.90;;;;;;5051951;28;20391;-60
2021/11/14 05:23:31;;;;;;;20.45;13.00;;;7.20;99.90;;;;;;5052146;28;20028;-59
2021/11/14 05:25:57;;;;;;;19.38;12.48;;;7.20;99.90;;;;;;5051483;28;20036;-62
2021/11/14 05:28:23;;;;;;;18.55;12.85;;;7.10;99.90;;;;;;5051749;28;20031;-60
2021/11/14 05:30:49;;;;;;;22.95;14.25;;;7.10;99.90;;;;;;5051932;28;20033;-62
2021/11/14 05:33:15;;;;;;;21.90;15.65;;;7.20;99.90;;;;;;5051716;28;20079;-61
2021/11/14 05:35:41;;;;;;;19.98;14.88;;;7.10;99.90;;;;;;5050963;28;20082;-62
2021/11/14 05:38:08;;;;;;;26.98;17.42;;;7.00;99.90;;;;;;5051092;28;20024;-62
2021/11/14 05:40:34;;;;;;;25.10;16.38;;;7.20;99.90;;;;;;5052040;28;20075;-62
2021/11/14 05:42:59;;;;;;;23.02;15.50;;;7.20;99.90;;;;;;5051822;28;20032;-61
2021/11/14 05:45:25;;;;;;;26.42;16.63;;;7.60;99.90;;;;;;5051119;28;20025;-61
2021/11/14 05:47:51;;;;;;;26.17;17.02;;;7.10;99.90;;;;;;5050985;28;20025;-62
2021/11/14 05:50:17;;;;;;;24.45;16.70;;;7.30;99.90;;;;;;5051084;28;20032;-62
2021/11/14 05:52:43;;;;;;;24.02;16.15;;;7.20;99.90;;;;;;5051715;28;20025;-62
2021/11/14 05:55:10;;;;;;;25.35;16.90;;;7.30;99.90;;;;;;5050916;28;20040;-62
2021/11/14 05:57:46;;;;;;;25.50;16.38;;;7.10;99.90;;;;;;5051541;28;20025;-61
2021/11/14 06:00:18;;;;;;;24.38;15.73;;;7.30;99.90;;;;;;5065081;22;20037;-62
2021/11/14 06:02:48;;;;;;;25.33;16.83;;;7.20;99.90;;;;;;5043181;28;20506;-59
2021/11/14 06:05:16;;;;;;;23.15;16.35;;;7.20;99.90;;;;;;5050860;28;20040;-60
2021/11/14 06:07:43;;;;;;;22.80;16.15;;;7.20;99.90;;;;;;5051572;28;20032;-61
2021/11/14 06:10:10;;;;;;;24.65;16.38;;;7.20;99.90;;;;;;5050899;28;20497;-61
2021/11/14 06:12:37;;;;;;;22.92;16.42;;;7.20;99.90;;;;;;5051293;28;20037;-60
2021/11/14 06:15:06;;;;;;;25.30;15.85;;;7.10;99.90;;;;;;5050796;28;20027;-60
2021/11/14 06:17:32;;;;;;;26.05;16.02;;;7.10;99.90;;;;;;5051226;28;20017;-61
2021/11/14 06:19:57;;;;;;;26.45;16.17;;;7.20;99.90;;;;;;5051274;28;20075;-60
2021/11/14 06:22:23;;;;;;;24.17;16.35;;;7.10;99.90;;;;;;5051427;28;20465;-61
2021/11/14 06:24:49;;;;;;;24.13;15.75;;;7.40;99.90;;;;;;5051012;28;20044;-62
2021/11/14 06:27:15;;;;;;;24.52;16.17;;;7.20;99.90;;;;;;5051198;28;20072;-62
2021/11/14 06:29:41;;;;;;;21.65;15.35;;;7.30;99.90;;;;;;5049435;28;20683;-61
2021/11/14 06:32:07;;;;;;;24.15;16.00;;;7.20;99.90;;;;;;5031344;28;20032;-60
2021/11/14 06:34:32;;;;;;;23.73;16.85;;;7.30;99.90;;;;;;5030692;28;20510;-61
2021/11/14 06:36:58;;;;;;;22.60;16.02;;;7.30;99.90;;;;;;5017597;28;20185;-64
2021/11/14 06:39:25;;;;;;;26.50;16.38;;;7.20;99.90;;;;;;5026685;28;20538;-64
2021/11/14 06:41:51;;;;;;;22.27;15.30;;;7.10;99.90;;;;;;5009512;28;20403;-66
2021/11/14 06:44:17;;;;;;;24.63;14.98;;;7.30;99.90;;;;;;5030550;28;20030;-65
2021/11/14 06:46:42;;;;;;;22.88;15.98;;;7.30;99.90;;;;;;5030963;28;20030;-62
2021/11/14 06:49:08;;;;;;;25.25;16.38;;;7.30;99.90;;;;;;5031047;28;20029;-62
2021/11/14 06:51:34;;;;;;;24.70;15.73;;;7.40;99.90;;;;;;5031131;28;20054;-64
2021/11/14 06:53:59;;;;;;;23.75;14.98;;;7.30;99.90;;;;;;5031169;28;20387;-64
2021/11/14 06:56:25;;;;;;;25.95;16.30;;;7.40;99.90;;;;;;5030410;28;20446;-66
2021/11/14 06:58:51;;;;;;;23.13;15.65;;;7.50;99.90;;;;;;5033203;28;20435;-67
2021/11/14 07:01:17;;;;;;;27.80;17.10;;;7.40;99.90;;;;;;5034578;28;20033;-68
2021/11/14 07:03:43;;;;;;;25.27;15.38;;;7.50;99.90;;;;;;5034833;28;20100;-67
2021/11/14 07:06:08;;;;;;;21.92;15.63;;;7.50;99.90;;;;;;5033652;28;20025;-66
2021/11/14 07:08:34;;;;;;;21.23;15.45;;;7.50;99.90;;;;;;5034504;28;20102;-66
2021/11/14 07:11:00;;;;;;;23.75;15.65;;;7.70;99.90;;;;;;5041014;28;20025;-69
2021/11/14 07:13:27;;;;;;;21.20;16.33;;;7.60;99.90;;;;;;5020713;28;20037;-68
2021/11/14 07:15:53;;;;;;;22.42;15.85;;;7.60;99.90;;;;;;5031197;28;20053;-69
2021/11/14 07:18:18;;;;;;;25.45;17.67;;;7.50;99.90;;;;;;5033474;28;20033;-68
2021/11/14 07:20:44;;;;;;;22.45;16.77;;;7.60;99.90;;;;;;5026077;28;20034;-68
2021/11/14 07:23:10;;;;;;;24.15;16.67;;;7.70;99.90;;;;;;5030581;28;20056;-68
2021/11/14 07:25:36;;;;;;;24.35;15.93;;;7.70;99.90;;;;;;5033220;28;20105;-68
2021/11/14 07:28:03;;;;;;;22.50;16.60;;;7.80;99.90;;;;;;5030046;28;20505;-66
2021/11/14 07:30:32;;;;;;;22.88;16.42;;;7.80;99.90;;;;;;5033644;28;20030;-68
2021/11/14 07:32:58;;;;;;;28.55;18.02;;;7.90;99.90;;;;;;5016740;28;20022;-68
2021/11/14 07:35:26;;;;;;;24.20;17.08;;;8.10;99.90;;;;;;5013647;28;20442;-68
2021/11/14 07:37:52;;;;;;;24.65;17.27;;;8.10;99.90;;;;;;5014297;28;20092;-67
2021/11/14 07:40:21;;;;;;;22.63;16.63;;;8.00;99.90;;;;;;4996403;28;20400;-65
2021/11/14 07:42:54;;;;;;;22.40;16.80;;;8.10;99.90;;;;;;5014411;28;20033;-75
2021/11/14 07:45:22;;;;;;;21.98;16.73;;;8.20;99.90;;;;;;5012080;28;20080;-76
2021/11/14 07:47:49;;;;;;;18.45;15.05;;;8.20;99.90;;;;;;5014151;28;20392;-76
2021/11/14 07:50:17;;;;;;;20.00;15.57;;;8.40;99.90;;;;;;5013549;28;20227;-67
2021/11/14 07:52:43;;;;;;;19.60;14.35;;;8.50;99.90;;;;;;5018572;28;20100;-67
2021/11/14 07:55:09;;;;;;;18.35;13.73;;;8.60;99.90;;;;;;5029733;28;20053;-66
2021/11/14 07:57:38;;;;;;;18.92;14.40;;;8.70;99.90;;;;;;5023557;28;20131;-66
2021/11/14 08:00:05;;;;;;;24.33;17.00;;;8.70;99.90;;;;;;5025385;28;20025;-68
2021/11/14 08:02:31;;;;;;;20.38;15.52;;;8.60;99.90;;;;;;5031936;28;20545;-68
2021/11/14 08:05:03;;;;;;;19.02;15.23;;;8.80;99.90;;;;;;5033073;28;20021;-68
2021/11/14 08:07:28;;;;;;;20.70;15.65;;;8.90;99.90;;;;;;5033267;28;20029;-68
2021/11/14 08:09:54;;;;;;;22.70;14.80;;;8.90;99.90;;;;;;5033037;28;20240;-68
2021/11/14 08:12:20;;;;;;;21.20;14.98;;;9.10;99.90;;;;;;5033282;28;20079;-70
2021/11/14 08:14:46;;;;;;;19.38;14.80;;;9.20;99.90;;;;;;5032025;28;20411;-68
2021/11/14 08:17:11;;;;;;;17.35;13.52;;;9.40;99.90;;;;;;5033377;28;20025;-69
2021/11/14 08:19:37;;;;;;;15.85;12.35;;;9.80;99.90;;;;;;5033205;28;20029;-69
2021/11/14 08:22:04;;;;;;;18.25;13.07;;;10.10;99.90;;;;;;5033030;28;20487;-69
2021/11/14 08:24:29;;;;;;;15.93;12.48;;;10.30;99.90;;;;;;5032560;28;20026;-68
2021/11/14 08:26:55;;;;;;;17.83;13.30;;;10.20;99.90;;;;;;5033065;28;20030;-69
2021/11/14 08:29:21;;;;;;;18.38;13.43;;;10.10;99.90;;;;;;5033108;28;20025;-68
2021/11/14 08:31:47;;;;;;;19.38;14.75;;;10.00;99.90;;;;;;5032469;28;20438;-68
2021/11/14 08:34:12;;;;;;;19.25;14.80;;;9.90;99.90;;;;;;5032713;28;20100;-68
2021/11/14 08:36:38;;;;;;;19.52;14.73;;;9.40;99.90;;;;;;5032140;28;20033;-68
2021/11/14 08:39:04;;;;;;;22.13;16.65;;;9.30;99.90;;;;;;5032617;28;20033;-68
2021/11/14 08:41:30;;;;;;;22.65;15.95;;;9.50;99.90;;;;;;5032714;28;20053;-67
2021/11/14 08:43:55;;;;;;;22.65;17.33;;;9.80;99.90;;;;;;5031940;28;20045;-72
2021/11/14 08:46:21;;;;;;;22.30;15.73;;;9.70;99.90;;;;;;5031818;28;20068;-68
2021/11/14 08:48:47;;;;;;;24.23;17.58;;;9.80;99.90;;;;;;5032605;28;20452;-67
2021/11/14 08:51:13;;;;;;;24.58;16.90;;;10.40;99.90;;;;;;5032595;28;20454;-67
2021/11/14 08:53:39;;;;;;;20.95;16.45;;;11.20;99.90;;;;;;5032787;28;20101;-67
2021/11/14 08:56:05;;;;;;;19.10;15.65;;;12.10;99.90;;;;;;5032033;28;20068;-67
2021/11/14 08:58:35;;;;;;;19.92;14.23;;;12.90;99.90;;;;;;5032877;28;20048;-68
2021/11/14 09:01:05;;;;;;;18.02;14.65;;;13.30;99.90;;;;;;5031883;28;20203;-66
2021/11/14 09:03:31;;;;;;;20.83;14.65;;;13.10;99.90;;;;;;5031461;28;20029;-68
2021/11/14 09:05:57;;;;;;;17.85;14.18;;;12.50;99.90;;;;;;5031662;28;20467;-67
2021/11/14 09:08:22;;;;;;;17.38;14.00;;;12.10;99.90;;;;;;5032399;28;20022;-68
2021/11/14 09:10:48;;;;;;;17.95;14.35;;;12.20;99.90;;;;;;5032255;28;20096;-68
2021/11/14 09:13:15;;;;;;;17.98;14.15;;;11.90;99.90;;;;;;5032537;28;20030;-68
2021/11/14 09:15:41;;;;;;;18.23;14.05;;;12.00;99.90;;;;;;5031662;28;20026;-68
2021/11/14 09:18:07;;;;;;;18.63;14.40;;;11.90;99.90;;;;;;5032160;28;20498;-68
2021/11/14 09:20:33;;;;;;;17.88;14.13;;;11.50;99.90;;;;;;5031683;28;20029;-67
2021/11/14 09:22:58;;;;;;;16.58;14.35;;;11.30;99.90;;;;;;5031954;28;20503;-69
2021/11/14 09:25:24;;;;;;;22.17;15.35;;;11.10;99.90;;;;;;5031882;28;20083;-68
2021/11/14 09:27:51;;;;;;;16.45;13.70;;;10.80;99.90;;;;;;5032383;28;20480;-68
2021/11/14 09:30:19;;;;;;;17.13;13.68;;;10.40;99.90;;;;;;5031712;28;20025;-68
2021/11/14 09:32:46;;;;;;;17.83;13.45;;;10.40;99.90;;;;;;5031907;28;20028;-67
2021/11/14 09:35:12;;;;;;;18.75;14.60;;;10.40;99.90;;;;;;5031490;28;20030;-67
2021/11/14 09:37:38;;;;;;;19.70;14.30;;;10.10;99.90;;;;;;5032086;28;20032;-67
2021/11/14 09:40:05;;;;;;;18.35;13.88;;;10.10;99.90;;;;;;5031376;28;20033;-67
2021/11/14 09:42:32;;;;;;;18.40;12.68;;;10.20;99.90;;;;;;5031822;28;20025;-68
2021/11/14 09:44:58;;;;;;;18.63;13.52;;;10.10;99.90;;;;;;5030613;28;20403;-67
2021/11/14 09:47:24;;;;;;;17.05;12.50;;;10.20;99.90;;;;;;5031700;28;20029;-68
2021/11/14 09:49:50;;;;;;;21.85;14.63;;;10.50;99.90;;;;;;5031564;28;20372;-67
2021/11/14 09:52:16;;;;;;;17.70;12.45;;;10.70;99.90;;;;;;5032225;28;20030;-68
2021/11/14 09:54:42;;;;;;;16.00;12.65;;;10.80;99.90;;;;;;5031045;28;20096;-68
2021/11/14 09:57:09;;;;;;;17.75;13.23;;;10.80;99.90;;;;;;5031940;28;20024;-68
2021/11/14 09:59:35;;;;;;;15.50;12.30;;;10.90;99.90;;;;;;5031610;28;20060;-68
2021/11/14 10:02:04;;;;;;;15.65;12.10;;;11.00;99.90;;;;;;5031411;28;20076;-67
2021/11/14 10:04:30;;;;;;;15.30;12.05;;;10.90;99.90;;;;;;5026639;28;20025;-67
2021/11/14 10:07:11;;;;;;;14.75;11.85;;;10.80;99.90;;;;;;5025012;28;20059;-67
2021/11/14 10:09:50;;;;;;;15.27;11.38;;;11.10;99.90;;;;;;5029033;28;20056;-68
2021/11/14 10:12:35;;;;;;;13.57;11.23;;;11.20;99.90;;;;;;5030579;28;20017;-74
2021/11/14 10:15:16;;;;;;;14.68;11.15;;;11.20;99.90;;;;;;5021674;28;20565;-74
2021/11/14 10:17:48;;;;;;;13.55;11.10;;;11.20;99.90;;;;;;5021713;28;20025;-71
2021/11/14 10:20:24;;;;;;;18.45;10.88;;;11.20;99.90;;;;;;5021399;28;20022;-74
2021/11/14 10:22:58;;;;;;;14.85;11.02;;;11.30;99.90;;;;;;5022331;28;20661;-75
2021/11/14 10:25:25;;;;;;;13.15;10.55;;;11.30;99.90;;;;;;5025115;28;20029;-74
2021/11/14 10:27:53;;;;;;;14.98;11.35;;;11.40;99.90;;;;;;5028333;28;20014;-74
2021/11/14 10:30:24;;;;;;;14.85;10.50;;;11.40;99.90;;;;;;5030636;28;20021;-74
2021/11/14 10:32:52;;;;;;;13.32;10.65;;;11.50;99.90;;;;;;5030501;28;20021;-74
2021/11/14 10:35:18;;;;;;;14.10;10.27;;;11.60;99.90;;;;;;5022802;28;20044;-75
2021/11/14 10:37:44;;;;;;;11.25;9.10;;;11.50;99.90;;;;;;5031887;28;20026;-74
2021/11/14 10:40:22;;;;;;;12.95;10.07;;;11.50;99.90;;;;;;5032026;28;20026;-74
2021/11/14 10:42:54;;;;;;;15.07;11.40;;;11.30;99.90;;;;;;5029647;28;20026;-73
2021/11/14 10:45:21;;;;;;;15.73;11.02;;;11.10;99.90;;;;;;5027250;28;20029;-75
2021/11/14 10:47:59;;;;;;;16.95;12.35;;;11.00;99.90;;;;;;5025590;28;20104;-74
2021/11/14 10:50:28;;;;;;;18.23;12.30;;;10.80;99.90;;;;;;5025696;28;20030;-74
2021/11/14 10:52:57;;;;;;;17.27;11.50;;;11.00;99.90;;;;;;5029482;28;20045;-73
2021/11/14 10:55:25;;;;;;;15.65;12.20;;;11.00;99.90;;;;;;5025854;28;20511;-75
2021/11/14 10:57:51;;;;;;;16.25;11.35;;;11.10;99.90;;;;;;5021253;28;20028;-67
2021/11/14 11:00:18;;;;;;;14.55;10.57;;;11.20;99.90;;;;;;5021137;28;20084;-75
2021/11/14 11:02:46;;;;;;;14.57;9.90;;;11.10;99.90;;;;;;5025561;28;20072;-73
2021/11/14 11:05:32;;;;;;;17.45;12.38;;;11.00;99.90;;;;;;5023513;28;20086;-74
2021/11/14 11:08:21;;;;;;;20.58;12.13;;;11.10;99.90;;;;;;5025017;28;20116;-74
2021/11/14 11:10:52;;;;;;;16.77;10.98;;;11.20;99.90;;;;;;5021524;28;20033;-74
2021/11/14 11:13:32;;;;;;;15.68;11.32;;;11.20;99.90;;;;;;5027581;28;20534;-74
2021/11/14 11:16:03;;;;;;;14.02;9.90;;;11.50;99.90;;;;;;5024047;28;20048;-74
2021/11/14 11:18:29;;;;;;;13.27;9.85;;;11.30;99.90;;;;;;5023553;28;20022;-74
2021/11/14 11:20:57;;;;;;;13.05;9.98;;;11.20;99.90;;;;;;5023029;28;20032;-74
2021/11/14 11:23:25;;;;;;;26.60;23.20;;;11.20;99.90;;;;;;5024389;28;20079;-73
2021/11/14 11:25:56;;;;;;;17.83;12.63;;;11.30;99.90;;;;;;5023169;28;20026;-73
2021/11/14 11:28:46;;;;;;;14.80;11.00;;;11.10;99.90;;;;;;5014904;28;20376;-74
2021/11/14 11:31:18;;;;;;;16.05;11.30;;;11.20;99.90;;;;;;5023295;28;20415;-74
2021/11/14 11:33:49;;;;;;;17.53;11.60;;;11.20;99.90;;;;;;5034269;28;20087;-68
2021/11/14 11:36:15;;;;;;;17.02;11.45;;;11.30;99.90;;;;;;5015689;28;20107;-68
2021/11/14 11:38:45;;;;;;;16.52;11.88;;;11.20;99.90;;;;;;5034058;28;20081;-69
2021/11/14 11:41:12;;;;;;;18.90;13.65;;;11.20;99.90;;;;;;5016671;28;20053;-69
2021/11/14 11:43:42;;;;;;;21.02;13.95;;;11.10;99.90;;;;;;5033916;28;20383;-68
2021/11/14 11:46:11;;;;;;;19.90;13.43;;;11.00;99.90;;;;;;5032641;28;20048;-68
2021/11/14 11:48:47;;;;;;;22.70;13.80;;;10.90;99.90;;;;;;5034299;28;20047;-67
2021/11/14 11:51:12;;;;;;;21.65;14.20;;;10.80;99.90;;;;;;5034192;28;20763;-67
2021/11/14 11:53:39;;;;;;;29.77;14.88;;;10.70;99.90;;;;;;5034210;28;20052;-69
2021/11/14 11:56:07;;;;;;;21.58;14.85;;;10.90;99.90;;;;;;5033745;28;20087;-68
2021/11/14 11:58:54;;;;;;;25.95;16.48;;;11.10;99.90;;;;;;5033922;28;20026;-67
2021/11/14 12:01:19;;;;;;;26.77;16.33;;;11.40;99.90;;;;;;5061695;22;20464;-71
2021/11/14 12:03:45;;;;;;;25.00;16.23;;;11.60;99.90;;;;;;5040426;28;20100;-74
2021/11/14 12:06:21;;;;;;;30.00;17.90;;;11.80;99.90;;;;;;5032720;28;20053;-70
2021/11/14 12:08:50;;;;;;;28.20;16.30;;;11.70;99.90;;;;;;5033470;28;20033;-70
2021/11/14 12:11:33;;;;;;;25.75;16.65;;;11.70;99.90;;;;;;5033138;28;20025;-70
2021/11/14 12:14:13;;;;;;;26.73;16.05;;;11.40;99.90;;;;;;5033557;28;20017;-70
2021/11/14 12:16:38;;;;;;;30.38;17.90;;;11.40;99.90;;;;;;5032436;28;20044;-69
2021/11/14 12:19:04;;;;;;;31.90;18.73;;;11.40;99.90;;;;;;5033510;28;20483;-70
2021/11/14 12:21:31;;;;;;;27.50;16.40;;;11.50;99.90;;;;;;5032983;28;20111;-69
2021/11/14 12:24:09;;;;;;;29.55;17.05;;;11.60;99.90;;;;;;5033261;28;20099;-70
2021/11/14 12:26:36;;;;;;;26.27;16.38;;;11.60;99.90;;;;;;5032462;28;20034;-69
2021/11/14 12:29:06;;;;;;;29.75;17.73;;;11.70;99.90;;;;;;5032968;28;20018;-69
2021/11/14 12:31:45;;;;;;;27.80;15.80;;;11.60;99.90;;;;;;5045382;28;20039;-69
2021/11/14 12:34:21;;;;;;;28.75;16.92;;;11.30;99.90;;;;;;5053978;28;20557;-70